sensor_id;sensor_type;location;lat;lon;timestamp;P1;durP1;ratioP1;P2;durP2;ratioP2
7475;SDS011;3779;49.216;8.650;2023-01-10T00:02:26;1.07;;;0.87;;
7475;SDS011;3779;49.216;8.650;2023-01-10T00:05:12;0.90;;;0.90;;
7475;SDS011;3779;49.216;8.650;2023-01-10T00:07:57;0.90;;;0.90;;
7475;SDS011;3779;49.216;8.650;2023-01-10T00:10:44;2.70;;;1.00;;
7475;SDS011;3779;49.216;8.650;2023-01-10T00:13:29;1.73;;;1.03;;
7475;SDS011;3779;49.216;8.650;2023-01-10T00:16:15;0.93;;;0.90;;
7475;SDS011;3779;49.216;8.650;2023-01-10T00:19:01;1.27;;;1.00;;
7475;SDS011;3779;49.216;8.650;2023-01-10T00:21:47;1.02;;;0.90;;
7475;SDS011;3779;49.216;8.650;2023-01-10T00:24:33;0.90;;;0.90;;
7475;SDS011;3779;49.216;8.650;2023-01-10T00:27:19;1.47;;;0.93;;
7475;SDS011;3779;49.216;8.650;2023-01-10T00:30:07;1.00;;;1.00;;
7475;SDS011;3779;49.216;8.650;2023-01-10T00:32:58;2.40;;;1.00;;
7475;SDS011;3779;49.216;8.650;2023-01-10T00:35:44;1.97;;;1.00;;
7475;SDS011;3779;49.216;8.650;2023-01-10T00:38:30;1.10;;;0.80;;
7475;SDS011;3779;49.216;8.650;2023-01-10T00:41:19;0.90;;;0.90;;
7475;SDS011;3779;49.216;8.650;2023-01-10T00:44:24;1.70;;;1.00;;
7475;SDS011;3779;49.216;8.650;2023-01-10T00:47:10;2.57;;;1.13;;
7475;SDS011;3779;49.216;8.650;2023-01-10T00:49:57;1.00;;;0.90;;
7475;SDS011;3779;49.216;8.650;2023-01-10T00:52:44;2.07;;;1.20;;
7475;SDS011;3779;49.216;8.650;2023-01-10T00:55:30;1.10;;;0.97;;
7475;SDS011;3779;49.216;8.650;2023-01-10T00:58:16;0.90;;;0.90;;
7475;SDS011;3779;49.216;8.650;2023-01-10T01:01:02;1.60;;;1.17;;
7475;SDS011;3779;49.216;8.650;2023-01-10T01:03:48;1.43;;;0.90;;
7475;SDS011;3779;49.216;8.650;2023-01-10T01:06:34;2.70;;;1.30;;
7475;SDS011;3779;49.216;8.650;2023-01-10T01:09:20;0.90;;;0.90;;
7475;SDS011;3779;49.216;8.650;2023-01-10T01:12:06;1.10;;;1.00;;
7475;SDS011;3779;49.216;8.650;2023-01-10T01:14:52;0.83;;;0.80;;
7475;SDS011;3779;49.216;8.650;2023-01-10T01:17:38;1.07;;;0.97;;
7475;SDS011;3779;49.216;8.650;2023-01-10T01:20:24;1.03;;;0.80;;
7475;SDS011;3779;49.216;8.650;2023-01-10T01:23:10;0.90;;;0.90;;
7475;SDS011;3779;49.216;8.650;2023-01-10T01:25:56;1.10;;;1.00;;
7475;SDS011;3779;49.216;8.650;2023-01-10T01:28:42;1.00;;;0.80;;
7475;SDS011;3779;49.216;8.650;2023-01-10T01:31:28;0.93;;;0.83;;
7475;SDS011;3779;49.216;8.650;2023-01-10T01:34:14;2.40;;;1.00;;
7475;SDS011;3779;49.216;8.650;2023-01-10T01:36:59;1.10;;;1.00;;
7475;SDS011;3779;49.216;8.650;2023-01-10T01:39:45;1.03;;;0.87;;
7475;SDS011;3779;49.216;8.650;2023-01-10T01:42:32;1.10;;;0.80;;
7475;SDS011;3779;49.216;8.650;2023-01-10T01:54:01;0.83;;;0.83;;
7475;SDS011;3779;49.216;8.650;2023-01-10T01:56:53;1.53;;;0.90;;
7475;SDS011;3779;49.216;8.650;2023-01-10T01:59:44;0.77;;;0.70;;
7475;SDS011;3779;49.216;8.650;2023-01-10T02:02:38;0.85;;;0.75;;
7475;SDS011;3779;49.216;8.650;2023-01-10T02:05:31;0.77;;;0.77;;
7475;SDS011;3779;49.216;8.650;2023-01-10T02:08:20;1.17;;;0.97;;
7475;SDS011;3779;49.216;8.650;2023-01-10T02:11:09;0.80;;;0.80;;
7475;SDS011;3779;49.216;8.650;2023-01-10T02:13:56;0.80;;;0.80;;
7475;SDS011;3779;49.216;8.650;2023-01-10T02:16:43;0.90;;;0.90;;
7475;SDS011;3779;49.216;8.650;2023-01-10T02:23:02;0.83;;;0.83;;
7475;SDS011;3779;49.216;8.650;2023-01-10T02:35:17;0.70;;;0.70;;
7475;SDS011;3779;49.216;8.650;2023-01-10T02:38:08;0.77;;;0.70;;
7475;SDS011;3779;49.216;8.650;2023-01-10T02:41:08;0.80;;;0.80;;
7475;SDS011;3779;49.216;8.650;2023-01-10T02:44:23;0.70;;;0.70;;
7475;SDS011;3779;49.216;8.650;2023-01-10T02:47:20;2.40;;;1.20;;
7475;SDS011;3779;49.216;8.650;2023-01-10T02:53:24;1.63;;;0.90;;
7475;SDS011;3779;49.216;8.650;2023-01-10T02:59:19;3.33;;;0.98;;
7475;SDS011;3779;49.216;8.650;2023-01-10T03:08:26;1.87;;;0.80;;
7475;SDS011;3779;49.216;8.650;2023-01-10T03:11:37;1.10;;;0.90;;
7475;SDS011;3779;49.216;8.650;2023-01-10T03:14:27;1.80;;;0.90;;
7475;SDS011;3779;49.216;8.650;2023-01-10T03:17:14;2.35;;;1.13;;
7475;SDS011;3779;49.216;8.650;2023-01-10T03:20:03;1.80;;;1.00;;
7475;SDS011;3779;49.216;8.650;2023-01-10T03:22:51;1.13;;;0.80;;
7475;SDS011;3779;49.216;8.650;2023-01-10T03:25:40;0.90;;;0.80;;
7475;SDS011;3779;49.216;8.650;2023-01-10T03:28:29;2.40;;;1.10;;
7475;SDS011;3779;49.216;8.650;2023-01-10T03:31:24;1.13;;;0.80;;
7475;SDS011;3779;49.216;8.650;2023-01-10T03:34:16;1.97;;;1.17;;
7475;SDS011;3779;49.216;8.650;2023-01-10T03:37:25;0.90;;;0.70;;
7475;SDS011;3779;49.216;8.650;2023-01-10T03:40:35;2.13;;;1.00;;
7475;SDS011;3779;49.216;8.650;2023-01-10T03:43:43;2.77;;;1.60;;
7475;SDS011;3779;49.216;8.650;2023-01-10T03:46:53;2.40;;;1.13;;
7475;SDS011;3779;49.216;8.650;2023-01-10T03:49:53;1.30;;;0.90;;
7475;SDS011;3779;49.216;8.650;2023-01-10T03:52:55;1.73;;;1.13;;
7475;SDS011;3779;49.216;8.650;2023-01-10T03:55:41;1.48;;;1.00;;
7475;SDS011;3779;49.216;8.650;2023-01-10T03:58:29;1.73;;;0.90;;
7475;SDS011;3779;49.216;8.650;2023-01-10T04:01:15;1.60;;;1.10;;
7475;SDS011;3779;49.216;8.650;2023-01-10T04:04:01;2.13;;;1.07;;
7475;SDS011;3779;49.216;8.650;2023-01-10T04:06:48;1.87;;;1.13;;
7475;SDS011;3779;49.216;8.650;2023-01-10T04:09:34;2.80;;;1.00;;
7475;SDS011;3779;49.216;8.650;2023-01-10T04:12:20;3.87;;;1.03;;
7475;SDS011;3779;49.216;8.650;2023-01-10T04:15:06;1.97;;;1.10;;
7475;SDS011;3779;49.216;8.650;2023-01-10T04:17:52;2.80;;;1.20;;
7475;SDS011;3779;49.216;8.650;2023-01-10T04:20:38;2.33;;;1.10;;
7475;SDS011;3779;49.216;8.650;2023-01-10T04:23:24;1.07;;;0.97;;
7475;SDS011;3779;49.216;8.650;2023-01-10T04:26:10;2.63;;;1.10;;
7475;SDS011;3779;49.216;8.650;2023-01-10T04:28:56;2.93;;;1.20;;
7475;SDS011;3779;49.216;8.650;2023-01-10T04:31:42;2.80;;;1.37;;
7475;SDS011;3779;49.216;8.650;2023-01-10T04:34:28;2.40;;;1.20;;
7475;SDS011;3779;49.216;8.650;2023-01-10T04:37:14;2.13;;;1.10;;
7475;SDS011;3779;49.216;8.650;2023-01-10T04:39:59;2.40;;;1.10;;
7475;SDS011;3779;49.216;8.650;2023-01-10T04:42:45;1.63;;;1.00;;
7475;SDS011;3779;49.216;8.650;2023-01-10T04:45:31;2.07;;;1.10;;
7475;SDS011;3779;49.216;8.650;2023-01-10T04:48:17;2.87;;;1.30;;
7475;SDS011;3779;49.216;8.650;2023-01-10T04:51:03;2.60;;;1.37;;
7475;SDS011;3779;49.216;8.650;2023-01-10T04:53:49;2.40;;;1.10;;
7475;SDS011;3779;49.216;8.650;2023-01-10T04:56:35;2.60;;;1.27;;
7475;SDS011;3779;49.216;8.650;2023-01-10T04:59:21;2.97;;;1.33;;
7475;SDS011;3779;49.216;8.650;2023-01-10T05:02:07;2.00;;;1.00;;
7475;SDS011;3779;49.216;8.650;2023-01-10T05:04:53;1.93;;;1.20;;
7475;SDS011;3779;49.216;8.650;2023-01-10T05:07:39;1.77;;;1.27;;
7475;SDS011;3779;49.216;8.650;2023-01-10T05:10:25;2.47;;;1.77;;
7475;SDS011;3779;49.216;8.650;2023-01-10T05:13:11;3.20;;;1.33;;
7475;SDS011;3779;49.216;8.650;2023-01-10T05:15:57;4.50;;;1.70;;
7475;SDS011;3779;49.216;8.650;2023-01-10T05:18:43;2.80;;;1.50;;
7475;SDS011;3779;49.216;8.650;2023-01-10T05:21:29;4.00;;;1.80;;
7475;SDS011;3779;49.216;8.650;2023-01-10T05:24:15;4.03;;;1.73;;
7475;SDS011;3779;49.216;8.650;2023-01-10T05:27:00;4.87;;;1.97;;
7475;SDS011;3779;49.216;8.650;2023-01-10T05:29:46;5.57;;;1.97;;
7475;SDS011;3779;49.216;8.650;2023-01-10T05:32:32;4.80;;;1.93;;
7475;SDS011;3779;49.216;8.650;2023-01-10T05:35:18;4.97;;;2.28;;
7475;SDS011;3779;49.216;8.650;2023-01-10T05:38:04;7.37;;;2.23;;
7475;SDS011;3779;49.216;8.650;2023-01-10T05:40:53;6.57;;;1.90;;
7475;SDS011;3779;49.216;8.650;2023-01-10T05:43:40;3.63;;;1.70;;
7475;SDS011;3779;49.216;8.650;2023-01-10T05:46:26;6.37;;;2.17;;
7475;SDS011;3779;49.216;8.650;2023-01-10T05:49:12;5.20;;;2.00;;
7475;SDS011;3779;49.216;8.650;2023-01-10T05:51:58;3.43;;;2.03;;
7475;SDS011;3779;49.216;8.650;2023-01-10T05:54:44;7.57;;;2.03;;
7475;SDS011;3779;49.216;8.650;2023-01-10T05:57:29;5.37;;;1.87;;
7475;SDS011;3779;49.216;8.650;2023-01-10T06:00:15;5.97;;;2.30;;
7475;SDS011;3779;49.216;8.650;2023-01-10T06:03:02;4.97;;;1.90;;
7475;SDS011;3779;49.216;8.650;2023-01-10T06:05:48;6.63;;;2.30;;
7475;SDS011;3779;49.216;8.650;2023-01-10T06:08:34;7.03;;;2.47;;
7475;SDS011;3779;49.216;8.650;2023-01-10T06:11:21;6.97;;;2.40;;
7475;SDS011;3779;49.216;8.650;2023-01-10T06:14:13;5.37;;;2.00;;
7475;SDS011;3779;49.216;8.650;2023-01-10T06:17:03;7.47;;;2.30;;
7475;SDS011;3779;49.216;8.650;2023-01-10T06:19:54;9.40;;;2.97;;
7475;SDS011;3779;49.216;8.650;2023-01-10T06:22:40;6.27;;;2.70;;
7475;SDS011;3779;49.216;8.650;2023-01-10T06:25:26;10.10;;;3.53;;
7475;SDS011;3779;49.216;8.650;2023-01-10T06:28:13;6.67;;;2.40;;
7475;SDS011;3779;49.216;8.650;2023-01-10T06:30:59;9.33;;;2.30;;
7475;SDS011;3779;49.216;8.650;2023-01-10T06:33:45;5.43;;;2.20;;
7475;SDS011;3779;49.216;8.650;2023-01-10T06:36:34;5.37;;;2.50;;
7475;SDS011;3779;49.216;8.650;2023-01-10T06:39:19;7.13;;;2.13;;
7475;SDS011;3779;49.216;8.650;2023-01-10T06:42:05;8.10;;;2.45;;
7475;SDS011;3779;49.216;8.650;2023-01-10T06:44:51;5.90;;;2.00;;
7475;SDS011;3779;49.216;8.650;2023-01-10T06:47:37;6.60;;;2.20;;
7475;SDS011;3779;49.216;8.650;2023-01-10T06:50:23;5.63;;;1.80;;
7475;SDS011;3779;49.216;8.650;2023-01-10T06:53:09;7.00;;;2.35;;
7475;SDS011;3779;49.216;8.650;2023-01-10T06:55:55;4.87;;;1.90;;
7475;SDS011;3779;49.216;8.650;2023-01-10T06:58:41;4.53;;;1.97;;
7475;SDS011;3779;49.216;8.650;2023-01-10T07:01:27;5.47;;;2.23;;
7475;SDS011;3779;49.216;8.650;2023-01-10T07:04:13;5.03;;;2.40;;
7475;SDS011;3779;49.216;8.650;2023-01-10T07:06:59;7.37;;;2.93;;
7475;SDS011;3779;49.216;8.650;2023-01-10T07:09:45;6.57;;;2.87;;
7475;SDS011;3779;49.216;8.650;2023-01-10T07:12:31;7.47;;;2.53;;
7475;SDS011;3779;49.216;8.650;2023-01-10T07:15:17;4.83;;;1.80;;
7475;SDS011;3779;49.216;8.650;2023-01-10T07:18:03;7.80;;;2.90;;
7475;SDS011;3779;49.216;8.650;2023-01-10T07:20:49;7.10;;;2.37;;
7475;SDS011;3779;49.216;8.650;2023-01-10T07:23:35;5.07;;;2.60;;
7475;SDS011;3779;49.216;8.650;2023-01-10T07:26:21;6.80;;;2.80;;
7475;SDS011;3779;49.216;8.650;2023-01-10T07:29:08;8.23;;;3.10;;
7475;SDS011;3779;49.216;8.650;2023-01-10T07:31:54;7.43;;;2.50;;
7475;SDS011;3779;49.216;8.650;2023-01-10T07:34:40;4.00;;;2.10;;
7475;SDS011;3779;49.216;8.650;2023-01-10T07:37:25;7.10;;;2.73;;
7475;SDS011;3779;49.216;8.650;2023-01-10T07:40:11;6.33;;;1.90;;
7475;SDS011;3779;49.216;8.650;2023-01-10T07:42:58;3.67;;;1.20;;
7475;SDS011;3779;49.216;8.650;2023-01-10T07:45:45;5.63;;;1.93;;
7475;SDS011;3779;49.216;8.650;2023-01-10T07:48:31;6.47;;;2.80;;
7475;SDS011;3779;49.216;8.650;2023-01-10T07:51:17;6.60;;;3.00;;
7475;SDS011;3779;49.216;8.650;2023-01-10T07:54:03;6.90;;;3.33;;
7475;SDS011;3779;49.216;8.650;2023-01-10T07:56:49;7.70;;;3.88;;
7475;SDS011;3779;49.216;8.650;2023-01-10T07:59:35;11.80;;;4.20;;
7475;SDS011;3779;49.216;8.650;2023-01-10T08:02:21;6.88;;;2.80;;
7475;SDS011;3779;49.216;8.650;2023-01-10T08:05:06;6.60;;;2.27;;
7475;SDS011;3779;49.216;8.650;2023-01-10T08:07:53;5.53;;;2.10;;
7475;SDS011;3779;49.216;8.650;2023-01-10T08:10:40;5.73;;;2.53;;
7475;SDS011;3779;49.216;8.650;2023-01-10T08:13:26;10.13;;;2.80;;
7475;SDS011;3779;49.216;8.650;2023-01-10T08:16:12;10.67;;;4.93;;
7475;SDS011;3779;49.216;8.650;2023-01-10T08:18:59;7.13;;;3.30;;
7475;SDS011;3779;49.216;8.650;2023-01-10T08:21:45;8.65;;;3.50;;
7475;SDS011;3779;49.216;8.650;2023-01-10T08:24:31;5.33;;;2.20;;
7475;SDS011;3779;49.216;8.650;2023-01-10T08:27:17;9.67;;;2.50;;
7475;SDS011;3779;49.216;8.650;2023-01-10T08:30:03;5.37;;;2.00;;
7475;SDS011;3779;49.216;8.650;2023-01-10T08:32:50;5.83;;;2.37;;
7475;SDS011;3779;49.216;8.650;2023-01-10T08:35:37;8.90;;;2.53;;
7475;SDS011;3779;49.216;8.650;2023-01-10T08:38:24;6.73;;;2.23;;
7475;SDS011;3779;49.216;8.650;2023-01-10T08:41:11;5.47;;;2.27;;
7475;SDS011;3779;49.216;8.650;2023-01-10T08:43:57;5.30;;;2.07;;
7475;SDS011;3779;49.216;8.650;2023-01-10T08:46:43;7.10;;;2.20;;
7475;SDS011;3779;49.216;8.650;2023-01-10T08:49:29;7.07;;;2.43;;
7475;SDS011;3779;49.216;8.650;2023-01-10T08:52:15;6.93;;;2.67;;
7475;SDS011;3779;49.216;8.650;2023-01-10T08:55:01;7.93;;;2.80;;
7475;SDS011;3779;49.216;8.650;2023-01-10T08:57:47;8.70;;;2.37;;
7475;SDS011;3779;49.216;8.650;2023-01-10T09:00:33;5.97;;;2.30;;
7475;SDS011;3779;49.216;8.650;2023-01-10T09:03:19;7.20;;;2.33;;
7475;SDS011;3779;49.216;8.650;2023-01-10T09:06:05;7.90;;;2.67;;
7475;SDS011;3779;49.216;8.650;2023-01-10T09:08:52;6.83;;;2.23;;
7475;SDS011;3779;49.216;8.650;2023-01-10T09:11:39;7.53;;;2.77;;
7475;SDS011;3779;49.216;8.650;2023-01-10T09:14:26;7.30;;;2.57;;
7475;SDS011;3779;49.216;8.650;2023-01-10T09:17:12;5.17;;;2.40;;
7475;SDS011;3779;49.216;8.650;2023-01-10T09:19:58;5.10;;;2.53;;
7475;SDS011;3779;49.216;8.650;2023-01-10T09:22:44;8.23;;;2.47;;
7475;SDS011;3779;49.216;8.650;2023-01-10T09:25:30;5.63;;;2.57;;
7475;SDS011;3779;49.216;8.650;2023-01-10T09:28:16;6.47;;;2.50;;
7475;SDS011;3779;49.216;8.650;2023-01-10T09:31:02;7.23;;;2.63;;
7475;SDS011;3779;49.216;8.650;2023-01-10T09:33:48;7.27;;;2.70;;
7475;SDS011;3779;49.216;8.650;2023-01-10T09:36:34;8.57;;;2.80;;
7475;SDS011;3779;49.216;8.650;2023-01-10T09:39:20;7.03;;;2.70;;
7475;SDS011;3779;49.216;8.650;2023-01-10T09:42:26;6.90;;;2.47;;
7475;SDS011;3779;49.216;8.650;2023-01-10T09:51:41;4.63;;;1.93;;
7475;SDS011;3779;49.216;8.650;2023-01-10T09:54:32;5.87;;;2.43;;
7475;SDS011;3779;49.216;8.650;2023-01-10T09:57:22;6.03;;;2.40;;
7475;SDS011;3779;49.216;8.650;2023-01-10T10:00:14;6.97;;;3.00;;
7475;SDS011;3779;49.216;8.650;2023-01-10T10:03:10;7.13;;;2.50;;
7475;SDS011;3779;49.216;8.650;2023-01-10T10:06:06;9.87;;;3.13;;
7475;SDS011;3779;49.216;8.650;2023-01-10T10:08:56;8.93;;;2.90;;
7475;SDS011;3779;49.216;8.650;2023-01-10T10:11:51;9.40;;;2.80;;
7475;SDS011;3779;49.216;8.650;2023-01-10T10:18:09;6.63;;;2.70;;
7475;SDS011;3779;49.216;8.650;2023-01-10T10:21:06;7.07;;;2.80;;
7475;SDS011;3779;49.216;8.650;2023-01-10T10:24:09;6.97;;;2.87;;
7475;SDS011;3779;49.216;8.650;2023-01-10T10:27:35;11.57;;;3.13;;
7475;SDS011;3779;49.216;8.650;2023-01-10T10:34:23;11.97;;;3.80;;
7475;SDS011;3779;49.216;8.650;2023-01-10T10:36:50;9.38;;;3.15;;
7475;SDS011;3779;49.216;8.650;2023-01-10T10:39:43;6.70;;;2.50;;
7475;SDS011;3779;49.216;8.650;2023-01-10T10:42:36;9.47;;;2.97;;
7475;SDS011;3779;49.216;8.650;2023-01-10T10:48:40;9.60;;;2.60;;
7475;SDS011;3779;49.216;8.650;2023-01-10T10:51:41;6.43;;;2.07;;
7475;SDS011;3779;49.216;8.650;2023-01-10T10:54:36;5.03;;;1.60;;
7475;SDS011;3779;49.216;8.650;2023-01-10T10:57:23;8.02;;;2.80;;
7475;SDS011;3779;49.216;8.650;2023-01-10T11:00:16;7.60;;;2.50;;
7475;SDS011;3779;49.216;8.650;2023-01-10T11:06:27;9.40;;;3.30;;
7475;SDS011;3779;49.216;8.650;2023-01-10T11:09:16;7.57;;;2.70;;
7475;SDS011;3779;49.216;8.650;2023-01-10T11:12:13;10.33;;;2.90;;
7475;SDS011;3779;49.216;8.650;2023-01-10T11:15:02;8.17;;;2.70;;
7475;SDS011;3779;49.216;8.650;2023-01-10T11:17:50;7.20;;;2.43;;
7475;SDS011;3779;49.216;8.650;2023-01-10T11:21:11;9.83;;;3.40;;
7475;SDS011;3779;49.216;8.650;2023-01-10T11:23:59;6.57;;;2.60;;
7475;SDS011;3779;49.216;8.650;2023-01-10T11:26:47;9.33;;;2.50;;
7475;SDS011;3779;49.216;8.650;2023-01-10T11:29:37;6.13;;;2.40;;
7475;SDS011;3779;49.216;8.650;2023-01-10T11:32:47;5.60;;;2.63;;
7475;SDS011;3779;49.216;8.650;2023-01-10T11:35:38;6.30;;;2.60;;
7475;SDS011;3779;49.216;8.650;2023-01-10T11:38:26;8.90;;;3.77;;
7475;SDS011;3779;49.216;8.650;2023-01-10T11:44:23;6.82;;;2.72;;
7475;SDS011;3779;49.216;8.650;2023-01-10T11:47:11;7.93;;;2.77;;
7475;SDS011;3779;49.216;8.650;2023-01-10T11:49:58;7.00;;;2.67;;
7475;SDS011;3779;49.216;8.650;2023-01-10T11:52:46;6.00;;;2.30;;
7475;SDS011;3779;49.216;8.650;2023-01-10T11:55:35;6.30;;;2.57;;
7475;SDS011;3779;49.216;8.650;2023-01-10T11:58:22;9.27;;;2.70;;
7475;SDS011;3779;49.216;8.650;2023-01-10T12:01:25;7.97;;;2.30;;
7475;SDS011;3779;49.216;8.650;2023-01-10T12:04:17;8.90;;;2.90;;
7475;SDS011;3779;49.216;8.650;2023-01-10T12:07:07;10.17;;;3.10;;
7475;SDS011;3779;49.216;8.650;2023-01-10T12:12:42;10.43;;;2.53;;
7475;SDS011;3779;49.216;8.650;2023-01-10T12:19:03;9.93;;;2.83;;
7475;SDS011;3779;49.216;8.650;2023-01-10T12:21:57;4.27;;;2.10;;
7475;SDS011;3779;49.216;8.650;2023-01-10T12:24:47;6.57;;;2.50;;
7475;SDS011;3779;49.216;8.650;2023-01-10T12:27:36;4.77;;;2.17;;
7475;SDS011;3779;49.216;8.650;2023-01-10T12:30:27;6.30;;;2.27;;
7475;SDS011;3779;49.216;8.650;2023-01-10T12:33:26;8.50;;;2.70;;
7475;SDS011;3779;49.216;8.650;2023-01-10T12:36:27;6.27;;;2.67;;
7475;SDS011;3779;49.216;8.650;2023-01-10T12:39:32;8.10;;;2.50;;
7475;SDS011;3779;49.216;8.650;2023-01-10T12:42:28;7.80;;;2.50;;
7475;SDS011;3779;49.216;8.650;2023-01-10T12:45:38;8.30;;;2.63;;
7475;SDS011;3779;49.216;8.650;2023-01-10T12:51:22;4.20;;;2.00;;
7475;SDS011;3779;49.216;8.650;2023-01-10T12:54:13;7.07;;;2.60;;
7475;SDS011;3779;49.216;8.650;2023-01-10T12:57:04;8.07;;;2.27;;
7475;SDS011;3779;49.216;8.650;2023-01-10T13:00:00;5.00;;;2.13;;
7475;SDS011;3779;49.216;8.650;2023-01-10T13:02:53;5.70;;;2.20;;
7475;SDS011;3779;49.216;8.650;2023-01-10T13:05:41;7.28;;;2.60;;
7475;SDS011;3779;49.216;8.650;2023-01-10T13:08:33;7.93;;;3.80;;
7475;SDS011;3779;49.216;8.650;2023-01-10T13:11:20;7.67;;;3.20;;
7475;SDS011;3779;49.216;8.650;2023-01-10T13:14:10;5.83;;;2.67;;
7475;SDS011;3779;49.216;8.650;2023-01-10T13:17:23;6.33;;;2.60;;
7475;SDS011;3779;49.216;8.650;2023-01-10T13:23:28;5.07;;;2.30;;
7475;SDS011;3779;49.216;8.650;2023-01-10T13:26:14;6.63;;;1.90;;
7475;SDS011;3779;49.216;8.650;2023-01-10T13:29:00;6.97;;;2.13;;
7475;SDS011;3779;49.216;8.650;2023-01-10T13:31:48;5.60;;;2.40;;
7475;SDS011;3779;49.216;8.650;2023-01-10T13:34:41;4.23;;;2.10;;
7475;SDS011;3779;49.216;8.650;2023-01-10T13:37:29;5.07;;;2.15;;
7475;SDS011;3779;49.216;8.650;2023-01-10T13:40:25;5.07;;;2.22;;
7475;SDS011;3779;49.216;8.650;2023-01-10T13:43:24;5.43;;;2.60;;
7475;SDS011;3779;49.216;8.650;2023-01-10T14:01:34;8.77;;;3.33;;
7475;SDS011;3779;49.216;8.650;2023-01-10T14:04:45;6.27;;;2.40;;
7475;SDS011;3779;49.216;8.650;2023-01-10T14:07:43;5.90;;;2.60;;
7475;SDS011;3779;49.216;8.650;2023-01-10T14:10:33;3.93;;;2.27;;
7475;SDS011;3779;49.216;8.650;2023-01-10T14:13:19;5.63;;;2.30;;
7475;SDS011;3779;49.216;8.650;2023-01-10T14:16:24;4.67;;;2.30;;
7475;SDS011;3779;49.216;8.650;2023-01-10T14:19:25;4.17;;;1.77;;
7475;SDS011;3779;49.216;8.650;2023-01-10T14:25:21;5.17;;;2.20;;
7475;SDS011;3779;49.216;8.650;2023-01-10T14:28:15;6.13;;;1.80;;
7475;SDS011;3779;49.216;8.650;2023-01-10T14:34:00;4.73;;;1.77;;
7475;SDS011;3779;49.216;8.650;2023-01-10T14:39:59;3.30;;;1.60;;
7475;SDS011;3779;49.216;8.650;2023-01-10T14:42:45;3.67;;;1.63;;
7475;SDS011;3779;49.216;8.650;2023-01-10T14:45:35;3.37;;;1.83;;
7475;SDS011;3779;49.216;8.650;2023-01-10T14:48:29;4.17;;;1.90;;
7475;SDS011;3779;49.216;8.650;2023-01-10T14:51:24;5.63;;;1.92;;
7475;SDS011;3779;49.216;8.650;2023-01-10T14:54:12;2.60;;;1.60;;
7475;SDS011;3779;49.216;8.650;2023-01-10T14:56:58;5.30;;;2.00;;
7475;SDS011;3779;49.216;8.650;2023-01-10T14:59:44;3.43;;;1.60;;
7475;SDS011;3779;49.216;8.650;2023-01-10T15:02:31;3.40;;;1.77;;
7475;SDS011;3779;49.216;8.650;2023-01-10T15:05:18;4.60;;;1.80;;
7475;SDS011;3779;49.216;8.650;2023-01-10T15:08:27;3.37;;;1.80;;
7475;SDS011;3779;49.216;8.650;2023-01-10T15:11:15;5.53;;;2.00;;
7475;SDS011;3779;49.216;8.650;2023-01-10T15:14:03;2.43;;;1.80;;
7475;SDS011;3779;49.216;8.650;2023-01-10T15:16:56;3.30;;;1.70;;
7475;SDS011;3779;49.216;8.650;2023-01-10T15:19:47;2.93;;;1.90;;
7475;SDS011;3779;49.216;8.650;2023-01-10T15:22:36;4.10;;;2.07;;
7475;SDS011;3779;49.216;8.650;2023-01-10T15:25:32;4.00;;;1.87;;
7475;SDS011;3779;49.216;8.650;2023-01-10T15:28:22;4.40;;;1.97;;
7475;SDS011;3779;49.216;8.650;2023-01-10T15:31:08;4.30;;;1.90;;
7475;SDS011;3779;49.216;8.650;2023-01-10T15:33:55;4.33;;;2.23;;
7475;SDS011;3779;49.216;8.650;2023-01-10T15:36:44;4.47;;;2.08;;
7475;SDS011;3779;49.216;8.650;2023-01-10T15:39:34;3.53;;;2.10;;
7475;SDS011;3779;49.216;8.650;2023-01-10T15:42:23;3.27;;;1.80;;
7475;SDS011;3779;49.216;8.650;2023-01-10T15:45:16;4.77;;;2.00;;
7475;SDS011;3779;49.216;8.650;2023-01-10T15:48:34;6.22;;;2.28;;
7475;SDS011;3779;49.216;8.650;2023-01-10T15:51:28;5.03;;;2.00;;
7475;SDS011;3779;49.216;8.650;2023-01-10T15:57:07;6.10;;;2.30;;
7475;SDS011;3779;49.216;8.650;2023-01-10T16:00:30;3.77;;;1.70;;
7475;SDS011;3779;49.216;8.650;2023-01-10T16:03:26;2.80;;;2.10;;
7475;SDS011;3779;49.216;8.650;2023-01-10T16:06:28;4.83;;;2.40;;
7475;SDS011;3779;49.216;8.650;2023-01-10T16:09:19;5.03;;;2.03;;
7475;SDS011;3779;49.216;8.650;2023-01-10T16:12:21;4.93;;;2.40;;
7475;SDS011;3779;49.216;8.650;2023-01-10T16:15:32;5.10;;;2.20;;
7475;SDS011;3779;49.216;8.650;2023-01-10T16:18:20;4.40;;;2.00;;
7475;SDS011;3779;49.216;8.650;2023-01-10T16:21:06;3.73;;;2.10;;
7475;SDS011;3779;49.216;8.650;2023-01-10T16:23:55;6.27;;;2.30;;
7475;SDS011;3779;49.216;8.650;2023-01-10T16:26:41;3.17;;;1.93;;
7475;SDS011;3779;49.216;8.650;2023-01-10T16:29:27;5.93;;;1.97;;
7475;SDS011;3779;49.216;8.650;2023-01-10T16:32:13;4.40;;;2.03;;
7475;SDS011;3779;49.216;8.650;2023-01-10T16:34:59;3.80;;;2.37;;
7475;SDS011;3779;49.216;8.650;2023-01-10T16:37:46;3.57;;;1.93;;
7475;SDS011;3779;49.216;8.650;2023-01-10T16:40:33;6.13;;;2.00;;
7475;SDS011;3779;49.216;8.650;2023-01-10T16:43:23;4.38;;;2.10;;
7475;SDS011;3779;49.216;8.650;2023-01-10T16:46:13;2.50;;;1.90;;
7475;SDS011;3779;49.216;8.650;2023-01-10T16:48:59;5.00;;;2.47;;
7475;SDS011;3779;49.216;8.650;2023-01-10T16:51:45;4.93;;;1.70;;
7475;SDS011;3779;49.216;8.650;2023-01-10T16:54:32;4.30;;;2.07;;
7475;SDS011;3779;49.216;8.650;2023-01-10T16:57:20;4.93;;;2.20;;
7475;SDS011;3779;49.216;8.650;2023-01-10T17:00:08;4.87;;;2.10;;
7475;SDS011;3779;49.216;8.650;2023-01-10T17:02:55;4.00;;;2.17;;
7475;SDS011;3779;49.216;8.650;2023-01-10T17:05:42;5.63;;;2.23;;
7475;SDS011;3779;49.216;8.650;2023-01-10T17:08:28;1.87;;;1.60;;
7475;SDS011;3779;49.216;8.650;2023-01-10T17:11:47;2.90;;;1.80;;
7475;SDS011;3779;49.216;8.650;2023-01-10T17:14:30;5.10;;;2.13;;
7475;SDS011;3779;49.216;8.650;2023-01-10T17:17:17;3.67;;;1.93;;
7475;SDS011;3779;49.216;8.650;2023-01-10T17:20:03;3.20;;;1.60;;
7475;SDS011;3779;49.216;8.650;2023-01-10T17:22:50;3.90;;;1.87;;
7475;SDS011;3779;49.216;8.650;2023-01-10T17:25:36;6.90;;;2.93;;
7475;SDS011;3779;49.216;8.650;2023-01-10T17:28:22;4.23;;;2.30;;
7475;SDS011;3779;49.216;8.650;2023-01-10T17:31:08;4.40;;;2.30;;
7475;SDS011;3779;49.216;8.650;2023-01-10T17:33:54;6.73;;;2.40;;
7475;SDS011;3779;49.216;8.650;2023-01-10T17:36:39;5.77;;;2.97;;
7475;SDS011;3779;49.216;8.650;2023-01-10T17:39:26;4.20;;;2.20;;
7475;SDS011;3779;49.216;8.650;2023-01-10T17:42:12;3.40;;;1.90;;
7475;SDS011;3779;49.216;8.650;2023-01-10T17:44:58;6.00;;;2.43;;
7475;SDS011;3779;49.216;8.650;2023-01-10T17:47:44;4.10;;;2.10;;
7475;SDS011;3779;49.216;8.650;2023-01-10T17:50:30;4.00;;;2.35;;
7475;SDS011;3779;49.216;8.650;2023-01-10T17:53:16;3.90;;;2.20;;
7475;SDS011;3779;49.216;8.650;2023-01-10T17:56:04;3.80;;;2.10;;
7475;SDS011;3779;49.216;8.650;2023-01-10T17:58:51;4.27;;;2.40;;
7475;SDS011;3779;49.216;8.650;2023-01-10T18:01:37;3.03;;;2.20;;
7475;SDS011;3779;49.216;8.650;2023-01-10T18:04:23;4.30;;;2.93;;
7475;SDS011;3779;49.216;8.650;2023-01-10T18:07:09;4.43;;;2.27;;
7475;SDS011;3779;49.216;8.650;2023-01-10T18:09:56;5.03;;;2.50;;
7475;SDS011;3779;49.216;8.650;2023-01-10T18:12:42;3.83;;;2.33;;
7475;SDS011;3779;49.216;8.650;2023-01-10T18:15:28;2.70;;;2.10;;
7475;SDS011;3779;49.216;8.650;2023-01-10T18:18:14;4.40;;;2.30;;
7475;SDS011;3779;49.216;8.650;2023-01-10T18:21:01;3.63;;;2.83;;
7475;SDS011;3779;49.216;8.650;2023-01-10T18:23:52;3.83;;;2.77;;
7475;SDS011;3779;49.216;8.650;2023-01-10T18:26:41;3.47;;;2.15;;
7475;SDS011;3779;49.216;8.650;2023-01-10T18:29:27;3.57;;;2.20;;
7475;SDS011;3779;49.216;8.650;2023-01-10T18:32:12;4.50;;;2.37;;
7475;SDS011;3779;49.216;8.650;2023-01-10T18:34:58;5.80;;;2.30;;
7475;SDS011;3779;49.216;8.650;2023-01-10T18:37:44;3.90;;;1.97;;
7475;SDS011;3779;49.216;8.650;2023-01-10T18:40:30;4.17;;;2.00;;
7475;SDS011;3779;49.216;8.650;2023-01-10T18:43:16;3.07;;;2.17;;
7475;SDS011;3779;49.216;8.650;2023-01-10T18:46:04;3.13;;;2.20;;
7475;SDS011;3779;49.216;8.650;2023-01-10T18:48:52;4.90;;;2.50;;
7475;SDS011;3779;49.216;8.650;2023-01-10T18:51:38;4.83;;;2.53;;
7475;SDS011;3779;49.216;8.650;2023-01-10T18:54:23;4.63;;;2.53;;
7475;SDS011;3779;49.216;8.650;2023-01-10T18:57:12;5.57;;;3.33;;
7475;SDS011;3779;49.216;8.650;2023-01-10T18:59:58;6.40;;;2.90;;
7475;SDS011;3779;49.216;8.650;2023-01-10T19:02:44;3.80;;;2.27;;
7475;SDS011;3779;49.216;8.650;2023-01-10T19:05:30;3.97;;;2.23;;
7475;SDS011;3779;49.216;8.650;2023-01-10T19:08:16;5.27;;;2.57;;
7475;SDS011;3779;49.216;8.650;2023-01-10T19:11:02;2.80;;;2.17;;